createdAt,value
2022-08-17T00:02:05.029Z,6.97
2022-08-17T00:05:07.358Z,7.40
2022-08-17T00:07:56.631Z,7.47
2022-08-17T00:10:49.369Z,7.10
2022-08-17T00:13:40.863Z,7.30
2022-08-17T00:16:56.118Z,8.20
2022-08-17T00:19:42.356Z,6.83
2022-08-17T00:22:36.120Z,6.87
2022-08-17T00:25:25.713Z,6.40
2022-08-17T00:28:16.024Z,6.70
2022-08-17T00:31:05.426Z,6.23
2022-08-17T00:33:55.816Z,6.60
2022-08-17T00:36:44.676Z,6.80
2022-08-17T00:39:34.882Z,6.17
2022-08-17T00:42:30.812Z,6.50
2022-08-17T00:45:20.371Z,6.23
2022-08-17T00:48:11.527Z,6.50
2022-08-17T00:51:21.560Z,6.70
2022-08-17T00:54:12.674Z,7.07
2022-08-17T00:57:04.140Z,6.97
2022-08-17T01:00:03.062Z,7.20
2022-08-17T01:02:53.330Z,7.33
2022-08-17T01:05:43.219Z,6.30
2022-08-17T01:08:36.267Z,6.47
2022-08-17T01:11:25.251Z,7.90
2022-08-17T01:14:14.471Z,6.33
2022-08-17T01:17:03.534Z,7.70
2022-08-17T01:19:53.909Z,6.63
2022-08-17T01:22:44.103Z,6.23
2022-08-17T01:25:33.217Z,6.23
2022-08-17T01:28:52.317Z,6.67
2022-08-17T01:31:34.161Z,7.00
2022-08-17T01:34:25.395Z,7.00
2022-08-17T01:37:34.388Z,7.93
2022-08-17T01:40:27.060Z,7.30
2022-08-17T01:43:18.579Z,6.97
2022-08-17T01:46:07.942Z,8.17
2022-08-17T01:48:57.491Z,8.27
2022-08-17T01:51:46.431Z,7.83
2022-08-17T01:54:35.854Z,7.30
2022-08-17T01:57:26.240Z,7.13
2022-08-17T02:00:15.800Z,7.37
2022-08-17T02:03:05.052Z,7.73
2022-08-17T02:05:54.419Z,7.50
2022-08-17T02:09:02.810Z,7.10
2022-08-17T02:11:52.403Z,8.50
2022-08-17T02:14:44.470Z,8.60
2022-08-17T02:17:33.862Z,8.17
2022-08-17T02:20:41.837Z,8.27
2022-08-17T02:23:34.229Z,8.37
2022-08-17T02:26:23.894Z,8.13
2022-08-17T02:29:15.749Z,7.90
2022-08-17T02:32:06.729Z,9.37
2022-08-17T02:34:55.724Z,9.50
2022-08-17T02:37:44.681Z,8.73
2022-08-17T02:40:40.718Z,8.63
2022-08-17T02:43:29.799Z,8.70
2022-08-17T02:46:19.432Z,9.97
2022-08-17T02:49:09.661Z,9.20
2022-08-17T02:51:59.283Z,9.13
2022-08-17T02:54:48.245Z,9.57
2022-08-17T02:57:37.159Z,9.50
2022-08-17T03:00:28.765Z,9.40
2022-08-17T03:03:19.813Z,11.40
2022-08-17T03:06:10.672Z,12.07
2022-08-17T03:08:59.773Z,12.10
2022-08-17T03:11:55.811Z,12.77
2022-08-17T03:14:45.122Z,13.20
2022-08-17T03:17:34.393Z,12.77
2022-08-17T03:20:24.720Z,12.80
2022-08-17T03:23:14.932Z,13.50
2022-08-17T03:26:03.927Z,11.53
2022-08-17T03:29:01.098Z,10.53
2022-08-17T03:31:50.371Z,10.13
2022-08-17T03:34:39.413Z,9.77
2022-08-17T03:37:28.573Z,9.80
2022-08-17T03:40:18.866Z,10.20
2022-08-17T03:43:29.676Z,11.00
2022-08-17T03:46:36.887Z,9.13
2022-08-17T03:49:43.560Z,9.40
2022-08-17T03:52:58.683Z,10.60
2022-08-17T03:56:15.235Z,13.10
2022-08-17T03:59:04.143Z,13.10
2022-08-17T04:01:55.147Z,13.77
2022-08-17T04:04:44.430Z,10.27
2022-08-17T04:07:34.944Z,10.27
2022-08-17T04:10:26.477Z,10.73
2022-08-17T04:13:16.781Z,9.83
2022-08-17T04:16:14.386Z,10.30
2022-08-17T04:19:03.712Z,10.90
2022-08-17T04:21:52.598Z,9.67
2022-08-17T04:24:41.423Z,9.30
2022-08-17T04:27:30.262Z,10.20
2022-08-17T04:30:20.680Z,10.30
2022-08-17T04:33:10.807Z,10.47
2022-08-17T04:36:01.522Z,9.13
2022-08-17T04:38:51.891Z,9.27
2022-08-17T04:41:58.588Z,8.40
2022-08-17T04:44:47.562Z,10.33
2022-08-17T04:47:38.009Z,10.23
2022-08-17T04:50:26.872Z,9.87
2022-08-17T04:53:17.046Z,9.57
2022-08-17T04:56:06.302Z,10.07
2022-08-17T04:58:56.452Z,8.87
2022-08-17T05:01:46.726Z,9.00
2022-08-17T05:04:36.945Z,9.07
2022-08-17T05:07:29.588Z,9.00
2022-08-17T05:10:21.154Z,10.23
2022-08-17T05:13:15.387Z,9.50
2022-08-17T05:16:05.478Z,9.00
2022-08-17T05:18:54.562Z,8.83
2022-08-17T05:21:46.086Z,8.53
2022-08-17T05:24:39.113Z,8.50
2022-08-17T05:27:35.445Z,8.60
2022-08-17T05:30:25.728Z,8.60
2022-08-17T05:33:16.551Z,8.10
2022-08-17T05:36:06.555Z,9.10
2022-08-17T05:38:56.780Z,9.30
2022-08-17T05:41:46.839Z,8.13
2022-08-17T05:44:35.805Z,8.37
2022-08-17T05:47:26.829Z,8.47
2022-08-17T05:50:27.178Z,9.00
2022-08-17T05:53:23.142Z,7.83
2022-08-17T05:56:29.321Z,8.43
2022-08-17T05:59:23.546Z,7.23
2022-08-17T06:02:19.514Z,6.37
2022-08-17T06:05:16.137Z,7.70
2022-08-17T06:08:11.041Z,8.50
2022-08-17T06:11:04.335Z,7.90
2022-08-17T06:14:14.415Z,8.17
2022-08-17T06:17:06.782Z,7.70
2022-08-17T06:19:58.135Z,7.90
2022-08-17T06:22:49.667Z,7.63
2022-08-17T06:25:44.159Z,7.70
2022-08-17T06:28:37.521Z,7.40
2022-08-17T06:31:29.182Z,6.80
2022-08-17T06:34:21.666Z,7.97
2022-08-17T06:37:15.863Z,7.00
2022-08-17T06:40:16.490Z,7.73
2022-08-17T06:43:13.804Z,6.67
2022-08-17T06:46:04.803Z,6.70
2022-08-17T06:48:58.553Z,7.30
2022-08-17T06:51:53.133Z,7.30
2022-08-17T06:54:47.930Z,6.77
2022-08-17T06:57:37.640Z,6.97
2022-08-17T07:00:29.520Z,6.30
2022-08-17T07:03:29.364Z,7.00
2022-08-17T07:06:19.628Z,6.83
2022-08-17T07:09:11.865Z,6.63
2022-08-17T07:12:04.036Z,7.83
2022-08-17T07:14:55.658Z,6.13
2022-08-17T07:17:48.408Z,6.10
2022-08-17T07:20:37.800Z,5.77
2022-08-17T07:23:33.889Z,6.40
2022-08-17T07:26:25.240Z,6.07
2022-08-17T07:29:18.189Z,5.73
2022-08-17T07:32:09.385Z,5.50
2022-08-17T07:35:11.422Z,5.53
2022-08-17T07:38:25.370Z,6.40
2022-08-17T07:41:15.486Z,5.77
2022-08-17T07:44:12.317Z,5.77
2022-08-17T07:47:19.588Z,7.13
2022-08-17T07:50:25.978Z,6.20
2022-08-17T07:53:17.544Z,5.93
2022-08-17T07:56:06.854Z,5.07
2022-08-17T07:59:07.217Z,5.80
2022-08-17T08:02:19.563Z,5.57
2022-08-17T08:05:15.043Z,5.63
2022-08-17T08:08:23.923Z,4.80
2022-08-17T08:11:15.487Z,5.70
2022-08-17T08:14:19.081Z,5.30
2022-08-17T08:17:09.426Z,5.85
2022-08-17T08:20:01.390Z,6.10
2022-08-17T08:23:15.503Z,6.32
2022-08-17T08:26:18.567Z,5.85
2022-08-17T08:29:13.808Z,5.85
2022-08-17T08:32:05.577Z,7.75
2022-08-17T08:35:02.878Z,7.32
2022-08-17T08:37:56.157Z,7.13
2022-08-17T08:40:52.104Z,7.35
2022-08-17T08:43:52.819Z,9.60
2022-08-17T08:46:48.797Z,7.90
2022-08-17T08:50:03.520Z,6.25
2022-08-17T08:53:01.964Z,6.38
2022-08-17T08:55:58.201Z,7.40
2022-08-17T08:58:53.336Z,5.38
2022-08-17T09:01:49.311Z,6.00
2022-08-17T09:05:12.992Z,5.35
2022-08-17T09:08:00.595Z,6.18
2022-08-17T09:11:00.996Z,7.88
2022-08-17T09:13:56.712Z,7.22
2022-08-17T09:16:49.187Z,7.38
2022-08-17T09:19:40.599Z,6.40
2022-08-17T09:22:33.818Z,7.28
2022-08-17T09:25:23.773Z,7.95
2022-08-17T09:28:19.049Z,7.25
2022-08-17T09:31:09.737Z,5.43
2022-08-17T09:34:00.805Z,5.20
2022-08-17T09:36:54.112Z,5.20
2022-08-17T09:39:44.725Z,4.90
2022-08-17T09:42:39.826Z,5.22
2022-08-17T09:45:32.064Z,4.97
2022-08-17T09:48:23.092Z,5.60
2022-08-17T09:51:15.311Z,5.28
2022-08-17T09:54:36.987Z,6.22
2022-08-17T09:57:30.035Z,4.38
2022-08-17T10:00:24.886Z,5.47
2022-08-17T10:03:29.968Z,5.00
2022-08-17T10:06:22.512Z,5.07
2022-08-17T10:09:16.125Z,4.30
2022-08-17T10:12:20.123Z,4.00
2022-08-17T10:15:13.862Z,3.70
2022-08-17T10:18:15.694Z,3.88
2022-08-17T10:21:33.509Z,4.00
2022-08-17T10:24:41.600Z,4.53
2022-08-17T10:27:53.021Z,3.53
2022-08-17T10:30:48.197Z,4.00
2022-08-17T10:33:46.039Z,4.47
2022-08-17T10:36:43.093Z,4.30
2022-08-17T10:39:34.917Z,3.92
2022-08-17T10:42:46.037Z,4.15
2022-08-17T10:45:37.185Z,4.25
2022-08-17T10:48:30.938Z,4.00
2022-08-17T10:51:39.081Z,3.90
2022-08-17T10:54:38.269Z,4.07
2022-08-17T10:57:38.611Z,4.13
2022-08-17T11:00:46.657Z,4.30
2022-08-17T11:03:35.690Z,4.05
2022-08-17T11:06:27.118Z,4.22
2022-08-17T11:09:28.458Z,4.07
2022-08-17T11:12:25.881Z,4.10
2022-08-17T11:15:23.746Z,4.40
2022-08-17T11:18:20.418Z,5.57
2022-08-17T11:21:15.131Z,5.07
2022-08-17T11:24:22.048Z,5.60
2022-08-17T11:27:12.899Z,4.80
2022-08-17T11:30:04.987Z,6.65
2022-08-17T11:32:57.517Z,4.82
2022-08-17T11:35:48.568Z,5.00
2022-08-17T11:38:46.415Z,5.15
2022-08-17T11:41:40.081Z,5.47
2022-08-17T11:44:37.489Z,5.20
2022-08-17T11:48:09.471Z,5.80
2022-08-17T11:51:19.809Z,5.40
2022-08-17T11:54:32.195Z,5.10
2022-08-17T11:57:41.201Z,5.90
2022-08-17T12:00:56.325Z,6.60
2022-08-17T12:03:54.184Z,6.72
2022-08-17T12:06:47.060Z,7.28
2022-08-17T12:09:39.743Z,9.15
2022-08-17T12:12:31.268Z,10.48
2022-08-17T12:15:24.349Z,11.18
2022-08-17T12:18:21.170Z,9.50
2022-08-17T12:21:32.043Z,11.35
2022-08-17T12:24:31.226Z,11.57
2022-08-17T12:28:04.316Z,11.05
2022-08-17T12:30:35.329Z,11.63
2022-08-17T12:33:28.032Z,12.73
2022-08-17T12:36:18.686Z,11.57
2022-08-17T12:39:14.441Z,13.27
2022-08-17T12:42:05.311Z,14.68
2022-08-17T12:44:54.169Z,13.48
2022-08-17T12:47:43.310Z,12.63
2022-08-17T12:50:34.572Z,14.98
2022-08-17T12:53:25.627Z,12.45
2022-08-17T12:56:15.075Z,13.93
2022-08-17T12:59:07.065Z,14.13
2022-08-17T13:01:57.311Z,11.98
2022-08-17T13:04:46.787Z,13.35
2022-08-17T13:07:37.626Z,13.07
2022-08-17T13:10:32.162Z,11.32
2022-08-17T13:13:23.209Z,13.80
2022-08-17T13:16:20.214Z,14.48
2022-08-17T13:19:10.574Z,13.80
2022-08-17T13:22:04.159Z,13.65
2022-08-17T13:24:54.586Z,15.70
2022-08-17T13:27:44.169Z,14.32
2022-08-17T13:30:34.243Z,14.15
2022-08-17T13:33:43.370Z,14.88
2022-08-17T13:36:34.855Z,15.20
2022-08-17T13:39:25.966Z,14.48
2022-08-17T13:42:29.748Z,15.07
2022-08-17T13:45:39.155Z,13.48
2022-08-17T13:48:31.984Z,13.90
2022-08-17T13:51:36.665Z,14.98
2022-08-17T13:54:28.380Z,15.13
2022-08-17T13:57:21.330Z,15.57
2022-08-17T14:00:13.068Z,13.80
2022-08-17T14:03:02.756Z,16.20
2022-08-17T14:05:54.068Z,13.75
2022-08-17T14:08:42.955Z,15.65
2022-08-17T14:11:32.713Z,16.55
2022-08-17T14:14:23.078Z,16.98
2022-08-17T14:17:12.544Z,14.70
2022-08-17T14:20:01.470Z,15.13
2022-08-17T14:22:55.543Z,18.55
2022-08-17T14:25:45.699Z,18.00
2022-08-17T14:28:36.473Z,21.00
2022-08-17T14:31:27.430Z,22.42
2022-08-17T14:34:16.380Z,20.67
2022-08-17T14:37:05.742Z,21.88
2022-08-17T14:39:56.800Z,21.27
2022-08-17T14:42:46.155Z,20.10
2022-08-17T14:45:35.149Z,20.23
2022-08-17T14:48:26.429Z,22.75
2022-08-17T14:51:15.956Z,23.20
2022-08-17T14:54:05.020Z,22.52
2022-08-17T14:57:22.324Z,21.05
2022-08-17T15:00:07.229Z,21.50
2022-08-17T15:02:58.111Z,20.27
2022-08-17T15:05:47.226Z,19.02
2022-08-17T15:08:36.423Z,17.48
2022-08-17T15:11:25.841Z,21.52
2022-08-17T15:14:17.255Z,22.75
2022-08-17T15:17:06.311Z,23.08
2022-08-17T15:19:55.186Z,20.42
2022-08-17T15:22:44.949Z,19.48
2022-08-17T15:25:34.186Z,20.92
2022-08-17T15:28:23.734Z,23.40
2022-08-17T15:31:14.392Z,22.77
2022-08-17T15:34:05.216Z,23.98
2022-08-17T15:36:56.889Z,26.65
2022-08-17T15:39:46.049Z,27.73
2022-08-17T15:42:35.393Z,25.27
2022-08-17T15:45:26.624Z,28.83
2022-08-17T15:48:18.556Z,25.25
2022-08-17T15:51:07.535Z,26.20
2022-08-17T15:53:57.502Z,28.08
2022-08-17T15:56:47.061Z,23.98
2022-08-17T15:59:36.137Z,26.70
2022-08-17T16:03:45.965Z,26.17
2022-08-17T16:05:36.586Z,26.77
2022-08-17T16:08:26.132Z,30.77
2022-08-17T16:11:15.846Z,25.20
2022-08-17T16:14:04.884Z,26.33
2022-08-17T16:16:54.617Z,28.17
2022-08-17T16:19:48.603Z,26.98
2022-08-17T16:22:40.278Z,24.77
2022-08-17T16:25:51.974Z,24.92
2022-08-17T16:28:40.089Z,24.02
2022-08-17T16:31:28.941Z,25.00
2022-08-17T16:34:18.957Z,28.20
2022-08-17T16:37:08.249Z,23.73
2022-08-17T16:40:00.265Z,23.45
2022-08-17T16:42:51.577Z,22.67
2022-08-17T16:45:42.174Z,23.38
2022-08-17T16:48:31.388Z,26.73
2022-08-17T16:51:21.424Z,26.20
2022-08-17T16:54:12.629Z,25.70
2022-08-17T16:57:06.352Z,25.63
2022-08-17T16:59:55.721Z,24.67
2022-08-17T17:02:47.092Z,27.52
2022-08-17T17:05:42.736Z,27.35
2022-08-17T17:08:37.490Z,26.08
2022-08-17T17:11:34.066Z,28.65
2022-08-17T17:14:28.317Z,26.27
2022-08-17T17:17:23.989Z,24.40
2022-08-17T17:20:15.756Z,22.23
2022-08-17T17:23:06.767Z,24.40
2022-08-17T17:26:00.707Z,23.53
2022-08-17T17:28:57.524Z,23.30
2022-08-17T17:31:51.410Z,24.50
2022-08-17T17:34:45.779Z,22.70
2022-08-17T17:37:41.606Z,22.90
2022-08-17T17:40:33.367Z,26.40
2022-08-17T17:43:38.840Z,22.40
2022-08-17T17:46:31.316Z,25.47
2022-08-17T17:49:24.040Z,24.37
2022-08-17T17:52:19.462Z,25.17
2022-08-17T17:55:14.674Z,25.93
2022-08-17T17:58:14.269Z,22.47
2022-08-17T18:01:13.292Z,25.17
2022-08-17T18:04:17.622Z,21.77
2022-08-17T18:07:19.417Z,25.80
2022-08-17T18:10:29.444Z,24.30
2022-08-17T18:13:26.575Z,23.27
2022-08-17T18:16:15.964Z,24.00
2022-08-17T18:19:06.844Z,26.07
2022-08-17T18:21:57.934Z,26.23
2022-08-17T18:24:49.634Z,24.50
2022-08-17T18:27:40.055Z,22.33
2022-08-17T18:30:29.996Z,25.30
2022-08-17T18:33:23.734Z,23.63
2022-08-17T18:36:13.302Z,23.97
2022-08-17T18:39:13.678Z,24.87
2022-08-17T18:42:04.517Z,23.30
2022-08-17T18:44:55.271Z,23.00
2022-08-17T18:47:53.903Z,23.07
2022-08-17T18:50:42.896Z,24.30
2022-08-17T18:53:37.219Z,24.50
2022-08-17T18:56:31.238Z,23.67
2022-08-17T18:59:33.480Z,22.90
2022-08-17T19:02:43.830Z,22.50
2022-08-17T19:05:35.801Z,23.20
2022-08-17T19:08:28.253Z,22.87
2022-08-17T19:11:22.019Z,22.17
2022-08-17T19:14:12.177Z,23.70
2022-08-17T19:17:06.340Z,23.50
2022-08-17T19:19:58.401Z,25.73
2022-08-17T19:22:51.443Z,23.50
2022-08-17T19:25:44.514Z,22.50
2022-08-17T19:28:35.776Z,21.43
2022-08-17T19:31:29.011Z,22.87
2022-08-17T19:34:30.041Z,26.07
2022-08-17T19:37:31.838Z,25.20
2022-08-17T19:40:51.222Z,26.40
2022-08-17T19:43:48.063Z,25.03
2022-08-17T19:46:50.079Z,26.60
2022-08-17T19:49:48.436Z,25.20
2022-08-17T19:52:41.996Z,25.33
2022-08-17T19:55:33.589Z,25.60
2022-08-17T19:58:27.610Z,25.27
2022-08-17T20:01:21.227Z,25.90
2022-08-17T20:04:15.302Z,24.90
2022-08-17T20:07:09.187Z,26.37
2022-08-17T20:10:03.316Z,26.27
2022-08-17T20:12:53.556Z,25.30
2022-08-17T20:15:43.988Z,25.40
2022-08-17T20:18:36.669Z,27.00
2022-08-17T20:21:28.816Z,29.07
2022-08-17T20:24:21.193Z,27.00
2022-08-17T20:27:14.608Z,25.50
2022-08-17T20:30:06.856Z,25.63
2022-08-17T20:32:57.102Z,27.03
2022-08-17T20:36:02.128Z,26.60
2022-08-17T20:38:52.801Z,25.97
2022-08-17T20:42:04.502Z,27.80
2022-08-17T20:44:54.626Z,27.23
2022-08-17T20:48:07.456Z,29.70
2022-08-17T20:51:00.582Z,27.87
2022-08-17T20:54:27.167Z,28.67
2022-08-17T20:57:35.069Z,28.70
2022-08-17T21:00:42.543Z,29.57
2022-08-17T21:03:51.886Z,29.23
2022-08-17T21:06:55.954Z,27.37
2022-08-17T21:09:45.741Z,30.23
2022-08-17T21:12:42.497Z,27.73
2022-08-17T21:15:37.536Z,29.80
2022-08-17T21:18:31.726Z,30.27
2022-08-17T21:21:25.047Z,29.60
2022-08-17T21:24:20.471Z,28.27
2022-08-17T21:27:20.037Z,29.37
2022-08-17T21:30:16.799Z,29.63
2022-08-17T21:33:23.725Z,32.70
2022-08-17T21:36:27.826Z,31.57
2022-08-17T21:39:17.739Z,31.13
2022-08-17T21:42:13.576Z,32.30
2022-08-17T21:45:09.723Z,31.97
2022-08-17T21:48:11.005Z,31.80
2022-08-17T21:51:03.630Z,31.60
2022-08-17T21:53:56.410Z,30.30
2022-08-17T21:56:47.905Z,29.50
2022-08-17T21:59:39.878Z,29.93
2022-08-17T22:02:32.636Z,30.17
2022-08-17T22:05:28.752Z,31.80
2022-08-17T22:08:20.334Z,32.13
2022-08-17T22:11:10.800Z,34.67
2022-08-17T22:14:05.246Z,34.93
2022-08-17T22:17:17.047Z,32.07
2022-08-17T22:20:08.346Z,35.37
2022-08-17T22:23:21.828Z,35.13
2022-08-17T22:26:13.775Z,36.93
2022-08-17T22:29:03.936Z,33.50
2022-08-17T22:31:56.154Z,33.60
2022-08-17T22:34:45.146Z,35.67
2022-08-17T22:37:35.100Z,34.57
2022-08-17T22:40:28.917Z,36.73
2022-08-17T22:43:26.144Z,35.00
2022-08-17T22:46:15.924Z,36.83
2022-08-17T22:49:04.796Z,37.70
2022-08-17T22:52:00.953Z,37.50
2022-08-17T22:55:09.377Z,36.30
2022-08-17T22:58:28.202Z,36.93
2022-08-17T23:01:28.666Z,41.07
2022-08-17T23:04:32.633Z,35.03
2022-08-17T23:07:22.198Z,36.37
2022-08-17T23:10:12.807Z,38.27
2022-08-17T23:13:02.118Z,38.27
2022-08-17T23:15:51.590Z,39.47
2022-08-17T23:18:41.990Z,35.70
2022-08-17T23:21:30.993Z,36.10
2022-08-17T23:24:26.844Z,37.27
2022-08-17T23:27:16.185Z,36.27
2022-08-17T23:30:05.379Z,38.07
2022-08-17T23:32:55.756Z,36.63
2022-08-17T23:35:47.113Z,39.10
2022-08-17T23:38:36.126Z,36.60
2022-08-17T23:41:26.826Z,60.03
2022-08-17T23:44:16.331Z,40.90
2022-08-17T23:47:07.697Z,35.50
2022-08-17T23:49:56.951Z,38.27
2022-08-17T23:52:53.484Z,37.60
2022-08-17T23:55:42.563Z,58.20
2022-08-17T23:58:32.010Z,38.70
